sensor_id;sensor_type;location;lat;lon;timestamp;P1;durP1;ratioP1;P2;durP2;ratioP2
966;SDS011;56108;48.730;9.304;2023-04-24T00:00:19;1.27;;;1.27;;
966;SDS011;56108;48.730;9.304;2023-04-24T00:02:27;1.73;;;1.23;;
966;SDS011;56108;48.730;9.304;2023-04-24T00:04:36;4.70;;;1.27;;
966;SDS011;56108;48.730;9.304;2023-04-24T00:06:45;2.20;;;1.48;;
966;SDS011;56108;48.730;9.304;2023-04-24T00:08:55;1.73;;;1.40;;
966;SDS011;56108;48.730;9.304;2023-04-24T00:11:03;1.50;;;1.40;;
966;SDS011;56108;48.730;9.304;2023-04-24T00:13:11;2.13;;;1.65;;
966;SDS011;56108;48.730;9.304;2023-04-24T00:15:22;1.90;;;1.65;;
966;SDS011;56108;48.730;9.304;2023-04-24T00:17:30;1.38;;;1.27;;
966;SDS011;56108;48.730;9.304;2023-04-24T00:19:38;1.17;;;1.17;;
966;SDS011;56108;48.730;9.304;2023-04-24T00:21:47;1.73;;;1.60;;
966;SDS011;56108;48.730;9.304;2023-04-24T00:23:56;1.05;;;1.05;;
966;SDS011;56108;48.730;9.304;2023-04-24T00:26:04;2.03;;;1.20;;
966;SDS011;56108;48.730;9.304;2023-04-24T00:28:12;1.45;;;1.35;;
966;SDS011;56108;48.730;9.304;2023-04-24T00:30:23;1.60;;;1.50;;
966;SDS011;56108;48.730;9.304;2023-04-24T00:32:31;1.10;;;1.10;;
966;SDS011;56108;48.730;9.304;2023-04-24T00:34:39;2.10;;;1.40;;
966;SDS011;56108;48.730;9.304;2023-04-24T00:36:47;1.50;;;1.50;;
966;SDS011;56108;48.730;9.304;2023-04-24T00:38:56;2.40;;;1.45;;
966;SDS011;56108;48.730;9.304;2023-04-24T00:41:05;1.40;;;1.30;;
966;SDS011;56108;48.730;9.304;2023-04-24T00:43:14;1.35;;;1.25;;
966;SDS011;56108;48.730;9.304;2023-04-24T00:45:24;1.90;;;1.52;;
966;SDS011;56108;48.730;9.304;2023-04-24T00:47:33;1.60;;;1.50;;
966;SDS011;56108;48.730;9.304;2023-04-24T00:49:41;2.60;;;1.30;;
966;SDS011;56108;48.730;9.304;2023-04-24T00:51:50;1.35;;;1.27;;
966;SDS011;56108;48.730;9.304;2023-04-24T00:53:58;1.60;;;1.50;;
966;SDS011;56108;48.730;9.304;2023-04-24T00:56:07;1.63;;;1.45;;
966;SDS011;56108;48.730;9.304;2023-04-24T00:58:15;1.35;;;1.30;;
966;SDS011;56108;48.730;9.304;2023-04-24T01:00:27;1.35;;;1.13;;
966;SDS011;56108;48.730;9.304;2023-04-24T01:02:36;1.52;;;1.20;;
966;SDS011;56108;48.730;9.304;2023-04-24T01:04:45;1.00;;;1.00;;
966;SDS011;56108;48.730;9.304;2023-04-24T01:06:53;1.35;;;1.17;;
966;SDS011;56108;48.730;9.304;2023-04-24T01:09:02;1.63;;;1.52;;
966;SDS011;56108;48.730;9.304;2023-04-24T01:11:11;1.55;;;1.45;;
966;SDS011;56108;48.730;9.304;2023-04-24T01:13:20;1.08;;;0.98;;
966;SDS011;56108;48.730;9.304;2023-04-24T01:15:31;1.20;;;1.10;;
966;SDS011;56108;48.730;9.304;2023-04-24T01:17:39;1.13;;;1.13;;
966;SDS011;56108;48.730;9.304;2023-04-24T01:19:47;1.50;;;1.23;;
966;SDS011;56108;48.730;9.304;2023-04-24T01:21:58;2.45;;;1.60;;
966;SDS011;56108;48.730;9.304;2023-04-24T01:24:13;1.65;;;1.35;;
966;SDS011;56108;48.730;9.304;2023-04-24T01:26:23;1.30;;;1.20;;
966;SDS011;56108;48.730;9.304;2023-04-24T01:28:31;2.35;;;1.15;;
966;SDS011;56108;48.730;9.304;2023-04-24T01:30:41;1.50;;;1.40;;
966;SDS011;56108;48.730;9.304;2023-04-24T01:32:50;1.10;;;1.10;;
966;SDS011;56108;48.730;9.304;2023-04-24T01:34:58;1.10;;;1.00;;
966;SDS011;56108;48.730;9.304;2023-04-24T01:37:07;1.80;;;1.70;;
966;SDS011;56108;48.730;9.304;2023-04-24T01:39:17;1.08;;;1.02;;
966;SDS011;56108;48.730;9.304;2023-04-24T01:41:27;1.10;;;1.05;;
966;SDS011;56108;48.730;9.304;2023-04-24T01:43:36;1.48;;;1.30;;
966;SDS011;56108;48.730;9.304;2023-04-24T01:45:45;0.98;;;0.98;;
966;SDS011;56108;48.730;9.304;2023-04-24T01:47:54;2.67;;;1.15;;
966;SDS011;56108;48.730;9.304;2023-04-24T01:50:03;1.60;;;1.50;;
966;SDS011;56108;48.730;9.304;2023-04-24T01:52:13;1.00;;;1.00;;
966;SDS011;56108;48.730;9.304;2023-04-24T01:54:25;2.92;;;1.15;;
966;SDS011;56108;48.730;9.304;2023-04-24T01:56:33;1.08;;;1.00;;
966;SDS011;56108;48.730;9.304;2023-04-24T01:58:42;1.00;;;1.00;;
966;SDS011;56108;48.730;9.304;2023-04-24T02:00:51;2.75;;;1.05;;
966;SDS011;56108;48.730;9.304;2023-04-24T02:02:59;0.95;;;0.95;;
966;SDS011;56108;48.730;9.304;2023-04-24T02:05:08;1.10;;;1.00;;
966;SDS011;56108;48.730;9.304;2023-04-24T02:07:16;1.00;;;0.80;;
966;SDS011;56108;48.730;9.304;2023-04-24T02:09:28;1.48;;;1.05;;
966;SDS011;56108;48.730;9.304;2023-04-24T02:11:37;1.98;;;1.25;;
966;SDS011;56108;48.730;9.304;2023-04-24T02:13:45;1.58;;;1.30;;
966;SDS011;56108;48.730;9.304;2023-04-24T02:15:53;0.77;;;0.77;;
966;SDS011;56108;48.730;9.304;2023-04-24T02:18:01;1.95;;;1.30;;
966;SDS011;56108;48.730;9.304;2023-04-24T02:20:09;1.73;;;1.35;;
966;SDS011;56108;48.730;9.304;2023-04-24T02:22:18;1.02;;;1.02;;
966;SDS011;56108;48.730;9.304;2023-04-24T02:24:29;1.25;;;1.15;;
966;SDS011;56108;48.730;9.304;2023-04-24T02:26:37;1.20;;;1.20;;
966;SDS011;56108;48.730;9.304;2023-04-24T02:28:48;0.88;;;0.88;;
966;SDS011;56108;48.730;9.304;2023-04-24T02:30:57;1.38;;;1.15;;
966;SDS011;56108;48.730;9.304;2023-04-24T02:33:05;1.00;;;1.00;;
966;SDS011;56108;48.730;9.304;2023-04-24T02:35:14;0.88;;;0.88;;
966;SDS011;56108;48.730;9.304;2023-04-24T02:37:22;0.95;;;0.95;;
966;SDS011;56108;48.730;9.304;2023-04-24T02:39:33;1.20;;;1.10;;
966;SDS011;56108;48.730;9.304;2023-04-24T02:41:41;1.00;;;1.00;;
966;SDS011;56108;48.730;9.304;2023-04-24T02:43:48;2.25;;;1.30;;
966;SDS011;56108;48.730;9.304;2023-04-24T02:45:56;1.13;;;1.00;;
966;SDS011;56108;48.730;9.304;2023-04-24T02:48:04;1.00;;;1.00;;
966;SDS011;56108;48.730;9.304;2023-04-24T02:50:12;1.00;;;1.00;;
966;SDS011;56108;48.730;9.304;2023-04-24T02:52:20;0.98;;;0.98;;
966;SDS011;56108;48.730;9.304;2023-04-24T02:54:28;2.00;;;1.20;;
966;SDS011;56108;48.730;9.304;2023-04-24T02:56:39;1.58;;;0.90;;
966;SDS011;56108;48.730;9.304;2023-04-24T02:58:47;1.50;;;1.15;;
966;SDS011;56108;48.730;9.304;2023-04-24T03:00:55;1.00;;;1.00;;
966;SDS011;56108;48.730;9.304;2023-04-24T03:03:04;1.33;;;1.05;;
966;SDS011;56108;48.730;9.304;2023-04-24T03:05:12;1.15;;;1.10;;
966;SDS011;56108;48.730;9.304;2023-04-24T03:07:20;1.13;;;0.98;;
966;SDS011;56108;48.730;9.304;2023-04-24T03:09:29;1.25;;;1.25;;
966;SDS011;56108;48.730;9.304;2023-04-24T03:11:39;1.15;;;1.10;;
966;SDS011;56108;48.730;9.304;2023-04-24T03:13:48;0.95;;;0.90;;
966;SDS011;56108;48.730;9.304;2023-04-24T03:15:56;2.33;;;1.23;;
966;SDS011;56108;48.730;9.304;2023-04-24T03:18:04;0.93;;;0.93;;
966;SDS011;56108;48.730;9.304;2023-04-24T03:20:14;0.90;;;0.90;;
966;SDS011;56108;48.730;9.304;2023-04-24T03:22:22;1.02;;;1.00;;
966;SDS011;56108;48.730;9.304;2023-04-24T03:24:30;1.23;;;1.00;;
966;SDS011;56108;48.730;9.304;2023-04-24T03:26:41;1.23;;;1.13;;
966;SDS011;56108;48.730;9.304;2023-04-24T03:29:04;1.13;;;1.10;;
966;SDS011;56108;48.730;9.304;2023-04-24T03:31:12;1.98;;;1.30;;
966;SDS011;56108;48.730;9.304;2023-04-24T03:33:21;2.90;;;1.20;;
966;SDS011;56108;48.730;9.304;2023-04-24T03:35:37;1.15;;;1.00;;
966;SDS011;56108;48.730;9.304;2023-04-24T03:37:49;0.70;;;0.70;;
966;SDS011;56108;48.730;9.304;2023-04-24T03:40:26;1.15;;;1.10;;
966;SDS011;56108;48.730;9.304;2023-04-24T03:42:38;1.30;;;1.20;;
966;SDS011;56108;48.730;9.304;2023-04-24T03:44:46;2.65;;;1.30;;
966;SDS011;56108;48.730;9.304;2023-04-24T03:46:57;1.35;;;1.02;;
966;SDS011;56108;48.730;9.304;2023-04-24T03:49:06;1.55;;;1.42;;
966;SDS011;56108;48.730;9.304;2023-04-24T03:51:18;1.50;;;1.40;;
966;SDS011;56108;48.730;9.304;2023-04-24T03:53:30;1.05;;;1.05;;
966;SDS011;56108;48.730;9.304;2023-04-24T03:55:38;1.38;;;1.10;;
966;SDS011;56108;48.730;9.304;2023-04-24T03:57:50;1.23;;;1.20;;
966;SDS011;56108;48.730;9.304;2023-04-24T03:59:59;1.55;;;1.20;;
966;SDS011;56108;48.730;9.304;2023-04-24T04:02:17;1.60;;;1.50;;
966;SDS011;56108;48.730;9.304;2023-04-24T04:04:26;1.33;;;1.17;;
966;SDS011;56108;48.730;9.304;2023-04-24T04:06:34;1.77;;;1.40;;
966;SDS011;56108;48.730;9.304;2023-04-24T04:08:44;1.92;;;1.30;;
966;SDS011;56108;48.730;9.304;2023-04-24T04:10:52;1.52;;;1.40;;
966;SDS011;56108;48.730;9.304;2023-04-24T04:13:05;1.52;;;1.42;;
966;SDS011;56108;48.730;9.304;2023-04-24T04:15:13;1.58;;;1.20;;
966;SDS011;56108;48.730;9.304;2023-04-24T04:17:21;1.65;;;1.55;;
966;SDS011;56108;48.730;9.304;2023-04-24T04:19:29;1.23;;;1.13;;
966;SDS011;56108;48.730;9.304;2023-04-24T04:21:37;1.50;;;1.40;;
966;SDS011;56108;48.730;9.304;2023-04-24T04:24:08;1.48;;;1.38;;
966;SDS011;56108;48.730;9.304;2023-04-24T04:26:20;1.23;;;1.23;;
966;SDS011;56108;48.730;9.304;2023-04-24T04:28:44;1.58;;;1.48;;
966;SDS011;56108;48.730;9.304;2023-04-24T04:30:53;1.08;;;1.08;;
966;SDS011;56108;48.730;9.304;2023-04-24T04:33:02;1.38;;;1.30;;
966;SDS011;56108;48.730;9.304;2023-04-24T04:35:11;0.82;;;0.82;;
966;SDS011;56108;48.730;9.304;2023-04-24T04:37:20;0.80;;;0.80;;
966;SDS011;56108;48.730;9.304;2023-04-24T04:39:34;1.50;;;1.40;;
966;SDS011;56108;48.730;9.304;2023-04-24T04:41:50;1.30;;;1.10;;
966;SDS011;56108;48.730;9.304;2023-04-24T04:44:05;1.80;;;1.23;;
966;SDS011;56108;48.730;9.304;2023-04-24T04:46:16;4.13;;;1.42;;
966;SDS011;56108;48.730;9.304;2023-04-24T04:48:36;1.50;;;1.40;;
966;SDS011;56108;48.730;9.304;2023-04-24T04:50:45;2.00;;;1.70;;
966;SDS011;56108;48.730;9.304;2023-04-24T04:52:54;1.60;;;1.50;;
966;SDS011;56108;48.730;9.304;2023-04-24T04:55:08;1.70;;;1.60;;
966;SDS011;56108;48.730;9.304;2023-04-24T04:57:50;2.58;;;1.77;;
966;SDS011;56108;48.730;9.304;2023-04-24T05:00:01;2.13;;;2.03;;
966;SDS011;56108;48.730;9.304;2023-04-24T05:02:19;1.98;;;1.83;;
966;SDS011;56108;48.730;9.304;2023-04-24T05:04:27;2.53;;;2.33;;
966;SDS011;56108;48.730;9.304;2023-04-24T05:06:36;1.80;;;1.70;;
966;SDS011;56108;48.730;9.304;2023-04-24T05:08:45;2.35;;;2.17;;
966;SDS011;56108;48.730;9.304;2023-04-24T05:11:06;3.00;;;2.53;;
966;SDS011;56108;48.730;9.304;2023-04-24T05:13:16;2.90;;;2.63;;
966;SDS011;56108;48.730;9.304;2023-04-24T05:15:40;2.83;;;2.58;;
966;SDS011;56108;48.730;9.304;2023-04-24T05:17:48;2.05;;;1.88;;
966;SDS011;56108;48.730;9.304;2023-04-24T05:19:56;2.38;;;2.17;;
966;SDS011;56108;48.730;9.304;2023-04-24T05:22:06;2.53;;;2.33;;
966;SDS011;56108;48.730;9.304;2023-04-24T05:24:24;2.45;;;2.13;;
966;SDS011;56108;48.730;9.304;2023-04-24T05:26:48;2.53;;;2.33;;
966;SDS011;56108;48.730;9.304;2023-04-24T05:29:01;2.35;;;2.20;;
966;SDS011;56108;48.730;9.304;2023-04-24T05:31:11;2.65;;;2.42;;
966;SDS011;56108;48.730;9.304;2023-04-24T05:33:19;2.95;;;2.75;;
966;SDS011;56108;48.730;9.304;2023-04-24T05:35:27;2.17;;;2.08;;
966;SDS011;56108;48.730;9.304;2023-04-24T05:37:35;2.45;;;2.13;;
966;SDS011;56108;48.730;9.304;2023-04-24T05:39:45;2.22;;;2.08;;
966;SDS011;56108;48.730;9.304;2023-04-24T05:41:54;2.63;;;2.53;;
966;SDS011;56108;48.730;9.304;2023-04-24T05:44:03;2.35;;;2.22;;
966;SDS011;56108;48.730;9.304;2023-04-24T05:46:13;3.78;;;2.55;;
966;SDS011;56108;48.730;9.304;2023-04-24T05:48:21;2.28;;;2.08;;
966;SDS011;56108;48.730;9.304;2023-04-24T05:50:30;2.53;;;2.10;;
966;SDS011;56108;48.730;9.304;2023-04-24T05:52:40;1.92;;;1.83;;
966;SDS011;56108;48.730;9.304;2023-04-24T05:55:02;1.95;;;1.85;;
966;SDS011;56108;48.730;9.304;2023-04-24T05:57:14;2.20;;;1.95;;
966;SDS011;56108;48.730;9.304;2023-04-24T05:59:36;2.90;;;2.60;;
966;SDS011;56108;48.730;9.304;2023-04-24T06:01:48;2.55;;;2.35;;
966;SDS011;56108;48.730;9.304;2023-04-24T06:03:58;2.42;;;2.20;;
966;SDS011;56108;48.730;9.304;2023-04-24T06:06:08;2.88;;;2.60;;
966;SDS011;56108;48.730;9.304;2023-04-24T06:08:16;3.30;;;3.10;;
966;SDS011;56108;48.730;9.304;2023-04-24T06:10:29;3.88;;;3.38;;
966;SDS011;56108;48.730;9.304;2023-04-24T06:12:38;3.05;;;2.40;;
966;SDS011;56108;48.730;9.304;2023-04-24T06:14:52;3.85;;;3.25;;
966;SDS011;56108;48.730;9.304;2023-04-24T06:17:17;2.30;;;2.20;;
966;SDS011;56108;48.730;9.304;2023-04-24T06:19:27;2.80;;;2.60;;
966;SDS011;56108;48.730;9.304;2023-04-24T06:21:35;2.15;;;2.05;;
966;SDS011;56108;48.730;9.304;2023-04-24T06:23:43;2.40;;;2.20;;
966;SDS011;56108;48.730;9.304;2023-04-24T06:25:52;3.92;;;2.15;;
966;SDS011;56108;48.730;9.304;2023-04-24T06:28:00;2.00;;;1.90;;
966;SDS011;56108;48.730;9.304;2023-04-24T06:30:09;2.28;;;2.15;;
966;SDS011;56108;48.730;9.304;2023-04-24T06:32:20;2.40;;;2.30;;
966;SDS011;56108;48.730;9.304;2023-04-24T06:34:30;2.60;;;2.40;;
966;SDS011;56108;48.730;9.304;2023-04-24T06:36:42;2.60;;;2.40;;
966;SDS011;56108;48.730;9.304;2023-04-24T06:38:50;2.10;;;1.70;;
966;SDS011;56108;48.730;9.304;2023-04-24T06:40:58;1.50;;;1.50;;
966;SDS011;56108;48.730;9.304;2023-04-24T06:43:07;2.45;;;2.10;;
966;SDS011;56108;48.730;9.304;2023-04-24T06:45:17;2.20;;;2.10;;
966;SDS011;56108;48.730;9.304;2023-04-24T06:47:29;1.70;;;1.60;;
966;SDS011;56108;48.730;9.304;2023-04-24T06:49:37;1.53;;;1.53;;
966;SDS011;56108;48.730;9.304;2023-04-24T06:51:46;1.97;;;1.87;;
966;SDS011;56108;48.730;9.304;2023-04-24T06:53:54;1.70;;;1.60;;
966;SDS011;56108;48.730;9.304;2023-04-24T06:56:02;1.83;;;1.73;;
966;SDS011;56108;48.730;9.304;2023-04-24T06:58:11;2.10;;;2.00;;
966;SDS011;56108;48.730;9.304;2023-04-24T07:00:20;2.00;;;1.80;;
966;SDS011;56108;48.730;9.304;2023-04-24T07:02:31;1.87;;;1.77;;
966;SDS011;56108;48.730;9.304;2023-04-24T07:04:40;2.40;;;2.30;;
966;SDS011;56108;48.730;9.304;2023-04-24T07:06:48;2.20;;;2.00;;
966;SDS011;56108;48.730;9.304;2023-04-24T07:09:00;1.80;;;1.70;;
966;SDS011;56108;48.730;9.304;2023-04-24T07:11:08;1.80;;;1.70;;
966;SDS011;56108;48.730;9.304;2023-04-24T07:13:16;1.80;;;1.70;;
966;SDS011;56108;48.730;9.304;2023-04-24T07:15:24;2.10;;;1.90;;
966;SDS011;56108;48.730;9.304;2023-04-24T07:17:35;1.73;;;1.63;;
966;SDS011;56108;48.730;9.304;2023-04-24T07:19:43;1.93;;;1.80;;
966;SDS011;56108;48.730;9.304;2023-04-24T07:21:51;1.70;;;1.60;;
966;SDS011;56108;48.730;9.304;2023-04-24T07:24:00;2.20;;;2.10;;
966;SDS011;56108;48.730;9.304;2023-04-24T07:26:08;1.90;;;1.80;;
966;SDS011;56108;48.730;9.304;2023-04-24T07:28:19;2.03;;;1.93;;
966;SDS011;56108;48.730;9.304;2023-04-24T07:30:27;1.90;;;1.80;;
966;SDS011;56108;48.730;9.304;2023-04-24T07:32:39;2.10;;;2.00;;
966;SDS011;56108;48.730;9.304;2023-04-24T07:34:48;2.77;;;2.57;;
966;SDS011;56108;48.730;9.304;2023-04-24T07:36:57;2.35;;;2.15;;
966;SDS011;56108;48.730;9.304;2023-04-24T07:39:05;1.65;;;1.63;;
966;SDS011;56108;48.730;9.304;2023-04-24T07:41:15;2.03;;;1.92;;
966;SDS011;56108;48.730;9.304;2023-04-24T07:43:25;2.03;;;1.88;;
966;SDS011;56108;48.730;9.304;2023-04-24T07:45:33;2.15;;;1.98;;
966;SDS011;56108;48.730;9.304;2023-04-24T07:47:45;1.83;;;1.70;;
966;SDS011;56108;48.730;9.304;2023-04-24T07:49:55;1.80;;;1.70;;
966;SDS011;56108;48.730;9.304;2023-04-24T07:52:04;1.90;;;1.80;;
966;SDS011;56108;48.730;9.304;2023-04-24T07:54:13;1.88;;;1.77;;
966;SDS011;56108;48.730;9.304;2023-04-24T07:56:21;1.77;;;1.67;;
966;SDS011;56108;48.730;9.304;2023-04-24T07:58:31;1.90;;;1.80;;
966;SDS011;56108;48.730;9.304;2023-04-24T08:00:39;2.00;;;1.90;;
966;SDS011;56108;48.730;9.304;2023-04-24T08:02:50;1.60;;;1.50;;
966;SDS011;56108;48.730;9.304;2023-04-24T08:04:58;1.98;;;1.80;;
966;SDS011;56108;48.730;9.304;2023-04-24T08:07:07;1.67;;;1.58;;
966;SDS011;56108;48.730;9.304;2023-04-24T08:09:17;1.90;;;1.63;;
966;SDS011;56108;48.730;9.304;2023-04-24T08:11:25;1.67;;;1.58;;
966;SDS011;56108;48.730;9.304;2023-04-24T08:13:33;1.92;;;1.83;;
966;SDS011;56108;48.730;9.304;2023-04-24T08:15:41;1.85;;;1.73;;
966;SDS011;56108;48.730;9.304;2023-04-24T08:17:52;1.80;;;1.70;;
966;SDS011;56108;48.730;9.304;2023-04-24T08:20:03;2.00;;;1.80;;
966;SDS011;56108;48.730;9.304;2023-04-24T08:22:14;1.98;;;1.85;;
966;SDS011;56108;48.730;9.304;2023-04-24T08:24:22;2.30;;;2.20;;
966;SDS011;56108;48.730;9.304;2023-04-24T08:26:31;2.08;;;1.98;;
966;SDS011;56108;48.730;9.304;2023-04-24T08:28:39;1.90;;;1.80;;
966;SDS011;56108;48.730;9.304;2023-04-24T08:30:47;1.95;;;1.85;;
966;SDS011;56108;48.730;9.304;2023-04-24T08:33:02;1.90;;;1.80;;
966;SDS011;56108;48.730;9.304;2023-04-24T08:35:11;2.30;;;2.10;;
966;SDS011;56108;48.730;9.304;2023-04-24T08:37:19;2.30;;;2.10;;
966;SDS011;56108;48.730;9.304;2023-04-24T08:39:28;1.83;;;1.73;;
966;SDS011;56108;48.730;9.304;2023-04-24T08:41:36;1.80;;;1.70;;
966;SDS011;56108;48.730;9.304;2023-04-24T08:43:48;2.20;;;2.00;;
966;SDS011;56108;48.730;9.304;2023-04-24T08:45:57;2.42;;;2.22;;
966;SDS011;56108;48.730;9.304;2023-04-24T08:48:11;2.28;;;2.08;;
966;SDS011;56108;48.730;9.304;2023-04-24T08:50:34;3.10;;;1.75;;
966;SDS011;56108;48.730;9.304;2023-04-24T08:52:42;1.85;;;1.75;;
966;SDS011;56108;48.730;9.304;2023-04-24T08:54:52;2.20;;;2.00;;
966;SDS011;56108;48.730;9.304;2023-04-24T08:57:10;2.00;;;1.80;;
966;SDS011;56108;48.730;9.304;2023-04-24T08:59:19;2.00;;;1.73;;
966;SDS011;56108;48.730;9.304;2023-04-24T09:01:30;2.00;;;1.80;;
966;SDS011;56108;48.730;9.304;2023-04-24T09:03:43;2.35;;;2.00;;
966;SDS011;56108;48.730;9.304;2023-04-24T09:05:53;2.67;;;2.47;;
966;SDS011;56108;48.730;9.304;2023-04-24T09:08:02;2.63;;;2.20;;
966;SDS011;56108;48.730;9.304;2023-04-24T09:10:13;2.50;;;1.80;;
966;SDS011;56108;48.730;9.304;2023-04-24T09:12:21;2.10;;;1.90;;
966;SDS011;56108;48.730;9.304;2023-04-24T09:14:30;2.15;;;2.05;;
966;SDS011;56108;48.730;9.304;2023-04-24T09:16:42;2.67;;;1.75;;
966;SDS011;56108;48.730;9.304;2023-04-24T09:18:53;2.22;;;2.00;;
966;SDS011;56108;48.730;9.304;2023-04-24T09:21:03;3.97;;;2.13;;
966;SDS011;56108;48.730;9.304;2023-04-24T09:23:17;2.72;;;2.10;;
966;SDS011;56108;48.730;9.304;2023-04-24T09:25:30;2.30;;;2.10;;
966;SDS011;56108;48.730;9.304;2023-04-24T09:27:45;2.17;;;2.08;;
966;SDS011;56108;48.730;9.304;2023-04-24T09:29:53;2.50;;;2.30;;
966;SDS011;56108;48.730;9.304;2023-04-24T09:34:29;2.05;;;1.95;;
966;SDS011;56108;48.730;9.304;2023-04-24T09:36:38;2.67;;;2.47;;
966;SDS011;56108;48.730;9.304;2023-04-24T09:38:47;2.05;;;1.95;;
966;SDS011;56108;48.730;9.304;2023-04-24T09:40:55;2.25;;;2.05;;
966;SDS011;56108;48.730;9.304;2023-04-24T09:43:09;2.08;;;1.95;;
966;SDS011;56108;48.730;9.304;2023-04-24T09:45:18;2.58;;;2.38;;
966;SDS011;56108;48.730;9.304;2023-04-24T09:47:26;1.80;;;1.70;;
966;SDS011;56108;48.730;9.304;2023-04-24T09:49:38;1.80;;;1.70;;
966;SDS011;56108;48.730;9.304;2023-04-24T09:51:49;1.80;;;1.70;;
966;SDS011;56108;48.730;9.304;2023-04-24T09:53:57;1.65;;;1.55;;
966;SDS011;56108;48.730;9.304;2023-04-24T09:56:06;1.65;;;1.50;;
966;SDS011;56108;48.730;9.304;2023-04-24T09:58:17;1.67;;;1.58;;
966;SDS011;56108;48.730;9.304;2023-04-24T10:00:26;1.63;;;1.35;;
966;SDS011;56108;48.730;9.304;2023-04-24T10:02:34;3.35;;;1.23;;
966;SDS011;56108;48.730;9.304;2023-04-24T10:04:53;1.45;;;1.35;;
966;SDS011;56108;48.730;9.304;2023-04-24T10:07:05;1.40;;;1.30;;
966;SDS011;56108;48.730;9.304;2023-04-24T10:09:14;1.30;;;1.30;;
966;SDS011;56108;48.730;9.304;2023-04-24T10:11:23;1.60;;;1.50;;
966;SDS011;56108;48.730;9.304;2023-04-24T10:13:31;1.33;;;1.23;;
966;SDS011;56108;48.730;9.304;2023-04-24T10:15:40;1.88;;;1.50;;
966;SDS011;56108;48.730;9.304;2023-04-24T10:17:49;1.63;;;1.52;;
966;SDS011;56108;48.730;9.304;2023-04-24T10:20:02;1.50;;;1.40;;
966;SDS011;56108;48.730;9.304;2023-04-24T10:22:11;1.17;;;1.17;;
966;SDS011;56108;48.730;9.304;2023-04-24T10:24:20;1.40;;;1.30;;
966;SDS011;56108;48.730;9.304;2023-04-24T10:26:29;1.85;;;1.70;;
966;SDS011;56108;48.730;9.304;2023-04-24T10:28:37;1.33;;;1.30;;
966;SDS011;56108;48.730;9.304;2023-04-24T10:30:46;1.75;;;1.65;;
966;SDS011;56108;48.730;9.304;2023-04-24T10:32:55;1.60;;;1.50;;
966;SDS011;56108;48.730;9.304;2023-04-24T10:35:07;1.52;;;1.42;;
966;SDS011;56108;48.730;9.304;2023-04-24T10:37:15;1.30;;;1.30;;
966;SDS011;56108;48.730;9.304;2023-04-24T10:39:24;1.60;;;1.40;;
966;SDS011;56108;48.730;9.304;2023-04-24T10:41:33;1.85;;;1.10;;
966;SDS011;56108;48.730;9.304;2023-04-24T10:43:45;1.60;;;1.50;;
966;SDS011;56108;48.730;9.304;2023-04-24T10:46:02;1.38;;;1.38;;
966;SDS011;56108;48.730;9.304;2023-04-24T10:48:11;2.13;;;1.35;;
966;SDS011;56108;48.730;9.304;2023-04-24T10:50:25;1.80;;;1.70;;
966;SDS011;56108;48.730;9.304;2023-04-24T10:52:43;1.73;;;1.63;;
966;SDS011;56108;48.730;9.304;2023-04-24T10:54:51;1.55;;;1.42;;
966;SDS011;56108;48.730;9.304;2023-04-24T10:59:43;1.55;;;1.45;;
966;SDS011;56108;48.730;9.304;2023-04-24T11:01:52;2.30;;;1.20;;
966;SDS011;56108;48.730;9.304;2023-04-24T11:04:02;1.58;;;1.48;;
966;SDS011;56108;48.730;9.304;2023-04-24T11:06:13;1.45;;;1.35;;
966;SDS011;56108;48.730;9.304;2023-04-24T11:08:25;1.70;;;1.08;;
966;SDS011;56108;48.730;9.304;2023-04-24T11:10:37;1.70;;;1.60;;
966;SDS011;56108;48.730;9.304;2023-04-24T11:12:46;1.95;;;1.30;;
966;SDS011;56108;48.730;9.304;2023-04-24T11:15:00;1.40;;;1.30;;
966;SDS011;56108;48.730;9.304;2023-04-24T11:17:08;1.65;;;1.55;;
966;SDS011;56108;48.730;9.304;2023-04-24T11:19:36;2.00;;;1.90;;
966;SDS011;56108;48.730;9.304;2023-04-24T11:21:55;1.60;;;1.50;;
966;SDS011;56108;48.730;9.304;2023-04-24T11:24:22;1.52;;;1.38;;
966;SDS011;56108;48.730;9.304;2023-04-24T11:26:31;1.52;;;1.42;;
966;SDS011;56108;48.730;9.304;2023-04-24T11:28:47;1.38;;;1.30;;
966;SDS011;56108;48.730;9.304;2023-04-24T11:30:58;1.00;;;1.00;;
966;SDS011;56108;48.730;9.304;2023-04-24T11:33:26;1.35;;;1.35;;
966;SDS011;56108;48.730;9.304;2023-04-24T11:35:39;2.10;;;1.70;;
966;SDS011;56108;48.730;9.304;2023-04-24T11:37:51;1.73;;;1.63;;
966;SDS011;56108;48.730;9.304;2023-04-24T11:40:25;1.40;;;1.40;;
966;SDS011;56108;48.730;9.304;2023-04-24T11:42:33;1.80;;;1.70;;
966;SDS011;56108;48.730;9.304;2023-04-24T11:44:42;1.80;;;1.70;;
966;SDS011;56108;48.730;9.304;2023-04-24T11:46:52;2.53;;;2.03;;
966;SDS011;56108;48.730;9.304;2023-04-24T11:49:00;2.10;;;1.90;;
966;SDS011;56108;48.730;9.304;2023-04-24T11:51:08;4.43;;;2.35;;
966;SDS011;56108;48.730;9.304;2023-04-24T11:53:21;1.80;;;1.70;;
966;SDS011;56108;48.730;9.304;2023-04-24T11:55:29;1.30;;;1.30;;
966;SDS011;56108;48.730;9.304;2023-04-24T11:57:37;2.20;;;1.95;;
966;SDS011;56108;48.730;9.304;2023-04-24T11:59:50;2.20;;;1.88;;
966;SDS011;56108;48.730;9.304;2023-04-24T12:01:58;2.47;;;2.28;;
966;SDS011;56108;48.730;9.304;2023-04-24T12:04:06;2.47;;;1.75;;
966;SDS011;56108;48.730;9.304;2023-04-24T12:06:14;2.15;;;1.90;;
966;SDS011;56108;48.730;9.304;2023-04-24T12:08:31;2.00;;;1.88;;
966;SDS011;56108;48.730;9.304;2023-04-24T12:10:41;1.80;;;1.70;;
966;SDS011;56108;48.730;9.304;2023-04-24T12:12:50;2.05;;;1.80;;
966;SDS011;56108;48.730;9.304;2023-04-24T12:14:58;2.60;;;2.40;;
966;SDS011;56108;48.730;9.304;2023-04-24T12:17:07;1.73;;;1.63;;
966;SDS011;56108;48.730;9.304;2023-04-24T12:19:17;1.88;;;1.77;;
966;SDS011;56108;48.730;9.304;2023-04-24T12:21:26;1.83;;;1.73;;
966;SDS011;56108;48.730;9.304;2023-04-24T12:23:39;1.58;;;1.50;;
966;SDS011;56108;48.730;9.304;2023-04-24T12:25:50;1.95;;;1.75;;
966;SDS011;56108;48.730;9.304;2023-04-24T12:28:08;1.70;;;1.60;;
966;SDS011;56108;48.730;9.304;2023-04-24T12:30:18;1.90;;;1.80;;
966;SDS011;56108;48.730;9.304;2023-04-24T12:32:26;1.63;;;1.55;;
966;SDS011;56108;48.730;9.304;2023-04-24T12:34:34;1.77;;;1.67;;
966;SDS011;56108;48.730;9.304;2023-04-24T12:36:43;2.55;;;1.80;;
966;SDS011;56108;48.730;9.304;2023-04-24T12:38:55;2.20;;;1.95;;
966;SDS011;56108;48.730;9.304;2023-04-24T12:41:03;2.45;;;2.25;;
966;SDS011;56108;48.730;9.304;2023-04-24T12:43:15;3.45;;;1.52;;
966;SDS011;56108;48.730;9.304;2023-04-24T12:45:24;2.22;;;1.90;;
966;SDS011;56108;48.730;9.304;2023-04-24T12:47:34;2.00;;;1.90;;
966;SDS011;56108;48.730;9.304;2023-04-24T12:49:46;2.00;;;1.90;;
966;SDS011;56108;48.730;9.304;2023-04-24T12:51:57;2.40;;;2.30;;
966;SDS011;56108;48.730;9.304;2023-04-24T12:54:07;2.05;;;1.92;;
966;SDS011;56108;48.730;9.304;2023-04-24T12:56:16;2.17;;;1.95;;
966;SDS011;56108;48.730;9.304;2023-04-24T12:58:25;1.70;;;1.60;;
966;SDS011;56108;48.730;9.304;2023-04-24T13:00:33;2.00;;;1.80;;
966;SDS011;56108;48.730;9.304;2023-04-24T13:02:42;2.30;;;2.10;;
966;SDS011;56108;48.730;9.304;2023-04-24T13:04:52;2.15;;;1.67;;
966;SDS011;56108;48.730;9.304;2023-04-24T13:07:01;1.90;;;1.80;;
966;SDS011;56108;48.730;9.304;2023-04-24T13:09:13;2.75;;;2.00;;
966;SDS011;56108;48.730;9.304;2023-04-24T13:11:24;1.85;;;1.75;;
966;SDS011;56108;48.730;9.304;2023-04-24T13:13:32;1.35;;;1.35;;
966;SDS011;56108;48.730;9.304;2023-04-24T13:15:41;1.50;;;1.40;;
966;SDS011;56108;48.730;9.304;2023-04-24T13:17:49;2.50;;;1.65;;
966;SDS011;56108;48.730;9.304;2023-04-24T13:19:58;1.73;;;1.63;;
966;SDS011;56108;48.730;9.304;2023-04-24T13:22:08;1.77;;;1.67;;
966;SDS011;56108;48.730;9.304;2023-04-24T13:24:21;1.95;;;1.80;;
966;SDS011;56108;48.730;9.304;2023-04-24T13:26:30;1.50;;;1.40;;
966;SDS011;56108;48.730;9.304;2023-04-24T13:28:38;1.92;;;1.83;;
966;SDS011;56108;48.730;9.304;2023-04-24T13:30:46;1.85;;;1.73;;
966;SDS011;56108;48.730;9.304;2023-04-24T13:32:55;2.20;;;2.10;;
966;SDS011;56108;48.730;9.304;2023-04-24T13:35:04;1.83;;;1.73;;